createdAt,value
2019-04-25T00:01:27.340Z,74.77
2019-04-25T00:03:55.562Z,74.93
2019-04-25T00:06:25.480Z,74.88
2019-04-25T00:08:53.715Z,74.71
2019-04-25T00:11:22.069Z,74.30
2019-04-25T00:13:51.599Z,74.11
2019-04-25T00:16:21.648Z,73.46
2019-04-25T00:18:49.820Z,73.48
2019-04-25T00:21:22.543Z,73.12
2019-04-25T00:23:55.447Z,72.59
2019-04-25T00:26:25.365Z,72.75
2019-04-25T00:28:53.583Z,72.50
2019-04-25T00:31:22.087Z,72.39
2019-04-25T00:33:50.337Z,72.45
2019-04-25T00:36:18.614Z,72.32
2019-04-25T00:38:48.243Z,72.22
2019-04-25T00:41:16.941Z,72.12
2019-04-25T00:43:45.392Z,72.31
2019-04-25T00:46:13.608Z,72.62
2019-04-25T00:48:43.142Z,72.73
2019-04-25T00:51:11.833Z,72.90
2019-04-25T00:53:41.811Z,72.48
2019-04-25T00:56:11.256Z,72.09
2019-04-25T00:58:44.453Z,72.37
2019-04-25T01:01:23.996Z,71.42
2019-04-25T01:03:53.654Z,71.73
2019-04-25T01:06:22.396Z,71.20
2019-04-25T01:08:53.239Z,71.23
2019-04-25T01:11:21.500Z,70.98
2019-04-25T01:13:50.859Z,70.67
2019-04-25T01:16:20.156Z,70.61
2019-04-25T01:18:48.766Z,69.75
2019-04-25T01:21:16.990Z,70.13
2019-04-25T01:23:45.823Z,69.65
2019-04-25T01:26:14.182Z,69.67
2019-04-25T01:28:43.894Z,69.40
2019-04-25T01:31:14.115Z,69.04
2019-04-25T01:33:43.336Z,68.83
2019-04-25T01:36:29.637Z,69.02
2019-04-25T01:38:59.555Z,68.82
2019-04-25T01:41:45.532Z,69.36
2019-04-25T01:44:24.200Z,69.39
2019-04-25T01:46:54.203Z,68.90
2019-04-25T01:49:23.922Z,68.73
2019-04-25T01:51:54.137Z,67.81
2019-04-25T01:54:23.793Z,67.98
2019-04-25T01:56:53.561Z,68.05
2019-04-25T01:59:23.654Z,68.22
2019-04-25T02:01:54.591Z,69.11
2019-04-25T02:04:23.195Z,68.21
2019-04-25T02:06:53.666Z,67.89
2019-04-25T02:09:23.559Z,67.22
2019-04-25T02:11:54.739Z,66.43
2019-04-25T02:14:23.771Z,66.29
2019-04-25T02:16:53.194Z,65.49
2019-04-25T02:19:22.123Z,64.69
2019-04-25T02:21:50.471Z,64.49
2019-04-25T02:24:18.747Z,63.82
2019-04-25T02:26:46.971Z,63.51
2019-04-25T02:29:15.243Z,64.44
2019-04-25T02:31:44.980Z,65.11
2019-04-25T02:34:17.430Z,67.37
2019-04-25T02:36:46.507Z,68.65
2019-04-25T02:39:15.623Z,67.75
2019-04-25T02:41:44.478Z,67.52
2019-04-25T02:44:14.567Z,68.10
2019-04-25T02:46:55.826Z,67.98
2019-04-25T02:49:36.873Z,67.34
2019-04-25T02:52:08.456Z,66.35
2019-04-25T02:54:34.818Z,66.20
2019-04-25T02:57:06.555Z,66.36
2019-04-25T02:59:36.630Z,66.65
2019-04-25T03:02:05.402Z,66.05
2019-04-25T03:04:33.911Z,67.27
2019-04-25T03:07:07.189Z,67.32
2019-04-25T03:09:35.028Z,66.71
2019-04-25T03:12:04.895Z,67.67
2019-04-25T03:14:34.971Z,68.52
2019-04-25T03:17:05.111Z,69.47
2019-04-25T03:19:37.176Z,69.44
2019-04-25T03:22:11.714Z,70.21
2019-04-25T03:24:39.462Z,69.88
2019-04-25T03:27:07.694Z,68.97
2019-04-25T03:29:35.985Z,68.98
2019-04-25T03:32:09.260Z,68.58
2019-04-25T03:34:35.077Z,68.63
2019-04-25T03:37:05.290Z,68.54
2019-04-25T03:39:33.757Z,68.42
2019-04-25T03:42:02.224Z,68.31
2019-04-25T03:44:31.088Z,69.14
2019-04-25T03:46:59.418Z,69.34
2019-04-25T03:49:27.649Z,70.24
2019-04-25T03:51:55.939Z,70.17
2019-04-25T03:54:24.174Z,69.65
2019-04-25T03:56:55.912Z,69.50
2019-04-25T03:59:23.661Z,68.55
2019-04-25T04:01:53.707Z,66.85
2019-04-25T04:04:23.574Z,66.44
2019-04-25T04:06:53.623Z,65.59
2019-04-25T04:09:23.889Z,65.09
2019-04-25T04:11:53.460Z,64.03
2019-04-25T04:14:23.825Z,62.87
2019-04-25T04:17:10.727Z,62.82
2019-04-25T04:19:41.029Z,62.80
2019-04-25T04:22:24.140Z,62.54
2019-04-25T04:24:54.078Z,62.58
2019-04-25T04:27:23.876Z,62.75
2019-04-25T04:29:52.252Z,62.59
2019-04-25T04:32:20.493Z,62.70
2019-04-25T04:34:48.775Z,62.63
2019-04-25T04:37:17.564Z,62.27
2019-04-25T04:39:46.067Z,62.49
2019-04-25T04:42:14.939Z,62.08
2019-04-25T04:44:44.146Z,62.33
2019-04-25T04:47:14.086Z,62.31
2019-04-25T04:49:43.966Z,62.25
2019-04-25T04:52:12.912Z,62.14
2019-04-25T04:54:43.878Z,61.99
2019-04-25T04:57:23.222Z,62.09
2019-04-25T04:59:43.829Z,61.40
2019-04-25T05:02:15.789Z,61.02
2019-04-25T05:05:03.570Z,61.14
2019-04-25T05:07:43.935Z,60.55
2019-04-25T05:10:13.526Z,60.72
2019-04-25T05:12:43.793Z,60.38
2019-04-25T05:15:14.839Z,60.00
2019-04-25T05:17:43.928Z,59.22
2019-04-25T05:20:13.316Z,59.11
2019-04-25T05:22:42.351Z,57.84
2019-04-25T05:25:10.587Z,56.96
2019-04-25T05:27:56.759Z,56.38
2019-04-25T05:30:10.920Z,55.82
2019-04-25T05:32:39.212Z,55.38
2019-04-25T05:35:07.424Z,54.17
2019-04-25T05:37:35.697Z,53.49
2019-04-25T05:40:07.337Z,53.24
2019-04-25T05:42:39.936Z,53.49
2019-04-25T05:45:08.167Z,53.54
2019-04-25T05:47:36.457Z,52.97
2019-04-25T05:50:06.363Z,52.45
2019-04-25T05:52:34.583Z,52.12
2019-04-25T05:55:03.972Z,51.85
2019-04-25T05:57:44.883Z,51.85
2019-04-25T06:00:03.678Z,51.70
2019-04-25T06:02:32.009Z,52.05
2019-04-25T06:05:00.276Z,51.98
2019-04-25T06:07:28.517Z,52.52
2019-04-25T06:09:58.431Z,51.50
2019-04-25T06:12:28.303Z,51.98
2019-04-25T06:14:56.585Z,50.71
2019-04-25T06:17:26.452Z,50.82
2019-04-25T06:19:56.155Z,50.91
2019-04-25T06:22:26.823Z,51.22
2019-04-25T06:24:57.046Z,50.88
2019-04-25T06:27:27.143Z,51.02
2019-04-25T06:29:59.173Z,50.07
2019-04-25T06:32:27.010Z,50.50
2019-04-25T06:34:55.240Z,50.54
2019-04-25T06:37:24.927Z,50.45
2019-04-25T06:39:53.740Z,50.78
2019-04-25T06:42:23.060Z,50.72
2019-04-25T06:45:03.572Z,49.71
2019-04-25T06:47:36.334Z,50.14
2019-04-25T06:50:05.791Z,50.70
2019-04-25T06:52:35.414Z,50.35
2019-04-25T06:55:06.004Z,50.14
2019-04-25T06:57:34.294Z,49.97
2019-04-25T07:00:04.328Z,48.84
2019-04-25T07:02:33.576Z,49.41
2019-04-25T07:05:03.954Z,49.19
2019-04-25T07:07:34.208Z,48.32
2019-04-25T07:10:03.636Z,48.17
2019-04-25T07:12:33.014Z,48.27
2019-04-25T07:15:03.806Z,47.76
2019-04-25T07:17:34.312Z,48.08
2019-04-25T07:20:03.842Z,47.86
2019-04-25T07:22:33.533Z,47.41
2019-04-25T07:25:03.637Z,47.13
2019-04-25T07:27:39.530Z,47.40
2019-04-25T07:30:26.712Z,47.88
2019-04-25T07:32:48.701Z,47.50
2019-04-25T07:35:17.045Z,46.49
2019-04-25T07:37:45.283Z,46.59
2019-04-25T07:40:13.982Z,46.38
2019-04-25T07:42:43.885Z,45.92
2019-04-25T07:45:13.906Z,45.36
2019-04-25T07:47:44.120Z,44.94
2019-04-25T07:50:13.915Z,43.68
2019-04-25T07:52:44.185Z,44.29
2019-04-25T07:55:13.769Z,42.80
2019-04-25T07:57:44.189Z,42.45
2019-04-25T08:00:13.371Z,41.40
2019-04-25T08:02:43.434Z,41.88
2019-04-25T08:05:14.403Z,41.29
2019-04-25T08:07:43.696Z,39.54
2019-04-25T08:10:13.911Z,41.12
2019-04-25T08:12:44.416Z,41.58
2019-04-25T08:15:29.959Z,40.74
2019-04-25T08:18:05.808Z,40.86
2019-04-25T08:20:34.702Z,39.28
2019-04-25T08:23:04.367Z,38.96
2019-04-25T08:25:33.786Z,38.12
2019-04-25T08:28:03.810Z,39.33
2019-04-25T08:30:34.187Z,38.63
2019-04-25T08:33:03.866Z,37.12
2019-04-25T08:35:34.237Z,38.28
2019-04-25T08:38:05.812Z,38.74
2019-04-25T08:40:35.995Z,39.48
2019-04-25T08:43:03.630Z,37.56
2019-04-25T08:45:33.087Z,37.56
2019-04-25T08:48:03.550Z,37.15
2019-04-25T08:50:49.854Z,37.00
2019-04-25T08:53:18.090Z,37.15
2019-04-25T08:55:56.849Z,35.85
2019-04-25T08:58:44.678Z,36.08
2019-04-25T09:01:14.579Z,36.98
2019-04-25T09:03:50.206Z,35.80
2019-04-25T09:06:18.651Z,36.04
2019-04-25T09:08:46.929Z,37.04
2019-04-25T09:11:15.274Z,37.02
2019-04-25T09:13:44.926Z,35.68
2019-04-25T09:16:15.307Z,36.41
2019-04-25T09:18:44.295Z,34.94
2019-04-25T09:21:13.820Z,37.22
2019-04-25T09:23:43.720Z,35.75
2019-04-25T09:26:12.260Z,34.63
2019-04-25T09:28:41.061Z,36.27
2019-04-25T09:31:10.141Z,34.20
2019-04-25T09:33:39.149Z,34.54
2019-04-25T09:36:07.497Z,34.81
2019-04-25T09:38:36.862Z,34.99
2019-04-25T09:41:05.442Z,34.92
2019-04-25T09:43:33.727Z,32.80
2019-04-25T09:46:03.595Z,34.40
2019-04-25T09:48:35.379Z,33.40
2019-04-25T09:51:20.420Z,32.65
2019-04-25T09:53:51.487Z,33.36
2019-04-25T09:56:21.798Z,32.50
2019-04-25T09:58:51.681Z,32.15
2019-04-25T10:01:20.030Z,32.12
2019-04-25T10:03:48.250Z,30.73
2019-04-25T10:06:17.300Z,33.49
2019-04-25T10:08:46.314Z,32.84
2019-04-25T10:11:14.946Z,31.37
2019-04-25T10:13:46.599Z,32.82
2019-04-25T10:16:14.832Z,30.57
2019-04-25T10:18:44.358Z,29.06
2019-04-25T10:21:14.352Z,32.36
2019-04-25T10:23:44.070Z,32.36
2019-04-25T10:26:13.251Z,32.43
2019-04-25T10:28:43.671Z,31.53
2019-04-25T10:31:13.486Z,30.77
2019-04-25T10:33:43.745Z,30.52
2019-04-25T10:36:14.308Z,31.59
2019-04-25T10:38:44.412Z,30.67
2019-04-25T10:41:14.215Z,30.86
2019-04-25T10:43:42.664Z,29.95
2019-04-25T10:46:10.903Z,33.42
2019-04-25T10:48:40.103Z,31.20
2019-04-25T10:51:08.521Z,29.21
2019-04-25T10:53:36.746Z,31.21
2019-04-25T10:56:05.972Z,29.86
2019-04-25T10:58:35.294Z,31.93
2019-04-25T11:01:04.967Z,32.27
2019-04-25T11:03:34.907Z,34.90
2019-04-25T11:06:03.927Z,31.46
2019-04-25T11:08:34.016Z,33.50
2019-04-25T11:11:03.765Z,33.33
2019-04-25T11:13:33.964Z,32.67
2019-04-25T11:16:03.521Z,34.54
2019-04-25T11:18:31.921Z,33.98
2019-04-25T11:21:00.158Z,33.56
2019-04-25T11:23:28.441Z,33.91
2019-04-25T11:25:56.662Z,34.94
2019-04-25T11:28:24.941Z,34.28
2019-04-25T11:30:54.489Z,32.76
2019-04-25T11:33:24.674Z,33.73
2019-04-25T11:35:53.576Z,34.35
2019-04-25T11:38:24.637Z,33.72
2019-04-25T11:40:57.471Z,34.79
2019-04-25T11:43:25.694Z,35.57
2019-04-25T11:45:55.767Z,35.38
2019-04-25T11:48:23.945Z,35.54
2019-04-25T11:50:53.263Z,35.87
2019-04-25T11:53:24.785Z,36.51
2019-04-25T11:55:53.752Z,35.77
2019-04-25T11:58:23.578Z,37.65
2019-04-25T12:00:54.144Z,37.55
2019-04-25T12:03:23.225Z,37.08
2019-04-25T12:05:53.149Z,37.60
2019-04-25T12:08:21.776Z,37.88
2019-04-25T12:10:50.056Z,38.62
2019-04-25T12:13:18.305Z,38.96
2019-04-25T12:15:47.098Z,39.25
2019-04-25T12:18:15.708Z,38.22
2019-04-25T12:20:46.171Z,38.67
2019-04-25T12:23:14.475Z,38.98
2019-04-25T12:25:45.335Z,38.62
2019-04-25T12:28:14.150Z,39.38
2019-04-25T12:30:43.884Z,39.27
2019-04-25T12:33:20.345Z,39.63
2019-04-25T12:35:43.692Z,40.34
2019-04-25T12:38:12.110Z,39.06
2019-04-25T12:40:40.920Z,40.45
2019-04-25T12:43:09.234Z,38.83
2019-04-25T12:45:43.309Z,38.07
2019-04-25T12:48:14.504Z,38.85
2019-04-25T12:50:43.969Z,38.63
2019-04-25T12:53:13.913Z,38.29
2019-04-25T12:55:42.269Z,38.01
2019-04-25T12:58:10.614Z,36.67
2019-04-25T13:00:48.039Z,39.81
2019-04-25T13:03:08.843Z,36.06
2019-04-25T13:05:37.234Z,37.62
2019-04-25T13:08:05.472Z,38.25
2019-04-25T13:10:34.553Z,38.10
2019-04-25T13:13:03.975Z,37.66
2019-04-25T13:15:35.705Z,37.17
2019-04-25T13:18:03.649Z,37.11
2019-04-25T13:20:31.908Z,37.62
2019-04-25T13:23:00.603Z,36.91
2019-04-25T13:25:29.136Z,37.16
2019-04-25T13:27:59.594Z,37.19
2019-04-25T13:30:41.615Z,37.00
2019-04-25T13:33:13.296Z,37.12
2019-04-25T13:36:02.087Z,39.54
2019-04-25T13:38:30.499Z,38.11
2019-04-25T13:40:59.412Z,38.85
2019-04-25T13:43:27.885Z,37.78
2019-04-25T13:45:56.887Z,37.48
2019-04-25T13:48:26.534Z,37.56
2019-04-25T13:50:55.181Z,37.45
2019-04-25T13:53:24.672Z,37.73
2019-04-25T13:55:53.745Z,38.09
2019-04-25T13:58:22.266Z,38.21
2019-04-25T14:00:50.818Z,39.14
2019-04-25T14:03:19.084Z,39.93
2019-04-25T14:05:47.321Z,37.93
2019-04-25T14:08:15.611Z,40.14
2019-04-25T14:10:44.329Z,37.01
2019-04-25T14:13:13.492Z,38.79
2019-04-25T14:15:45.082Z,36.45
2019-04-25T14:18:18.106Z,37.58
2019-04-25T14:20:47.985Z,36.95
2019-04-25T14:23:16.209Z,36.48
2019-04-25T14:25:44.496Z,36.35
2019-04-25T14:28:14.138Z,35.01
2019-04-25T14:30:43.847Z,36.58
2019-04-25T14:33:13.572Z,37.32
2019-04-25T14:35:42.034Z,36.57
2019-04-25T14:38:10.274Z,37.25
2019-04-25T14:40:38.554Z,38.09
2019-04-25T14:43:07.058Z,39.31
2019-04-25T14:45:44.295Z,37.95
2019-04-25T14:48:05.356Z,38.80
2019-04-25T14:50:34.016Z,38.04
2019-04-25T14:53:02.744Z,37.51
2019-04-25T14:55:32.622Z,39.67
2019-04-25T14:58:02.538Z,39.98
2019-04-25T15:00:41.574Z,39.22
2019-04-25T15:03:10.148Z,37.63
2019-04-25T15:05:43.567Z,40.49
2019-04-25T15:08:12.232Z,40.68
2019-04-25T15:10:40.462Z,39.57
2019-04-25T15:13:08.816Z,40.00
2019-04-25T15:15:37.050Z,41.12
2019-04-25T15:18:05.323Z,39.17
2019-04-25T15:20:34.430Z,41.06
2019-04-25T15:23:02.718Z,37.84
2019-04-25T15:25:31.787Z,38.50
2019-04-25T15:28:00.348Z,38.08
2019-04-25T15:30:30.270Z,37.14
2019-04-25T15:32:58.893Z,36.69
2019-04-25T15:35:32.132Z,38.74
2019-04-25T15:38:08.326Z,39.77
2019-04-25T15:40:44.041Z,40.41
2019-04-25T15:43:16.361Z,40.37
2019-04-25T15:45:46.279Z,40.29
2019-04-25T15:48:14.519Z,39.08
2019-04-25T15:50:42.889Z,40.59
2019-04-25T15:53:11.241Z,39.91
2019-04-25T15:55:39.470Z,39.68
2019-04-25T15:58:07.753Z,39.94
2019-04-25T16:00:37.255Z,37.80
2019-04-25T16:03:05.839Z,38.95
2019-04-25T16:05:35.575Z,39.21
2019-04-25T16:08:04.556Z,39.37
2019-04-25T16:10:32.785Z,39.71
2019-04-25T16:13:01.062Z,39.17
2019-04-25T16:15:29.309Z,38.57
2019-04-25T16:17:57.629Z,37.79
2019-04-25T16:20:25.836Z,37.77
2019-04-25T16:22:54.074Z,39.30
2019-04-25T16:25:22.900Z,38.58
2019-04-25T16:27:51.301Z,38.99
2019-04-25T16:30:21.222Z,39.33
2019-04-25T16:32:49.463Z,40.35
2019-04-25T16:35:17.795Z,40.75
2019-04-25T16:37:46.022Z,40.18
2019-04-25T16:40:14.288Z,39.52
2019-04-25T16:42:42.523Z,39.09
2019-04-25T16:45:10.878Z,38.69
2019-04-25T16:47:39.186Z,39.32
2019-04-25T16:50:07.494Z,38.94
2019-04-25T16:52:35.888Z,38.86
2019-04-25T16:55:06.134Z,39.71
2019-04-25T16:57:34.840Z,38.71
2019-04-25T17:00:05.075Z,39.67
2019-04-25T17:02:37.530Z,39.67
2019-04-25T17:05:03.550Z,39.61
2019-04-25T17:07:31.913Z,39.08
2019-04-25T17:10:00.125Z,39.59
2019-04-25T17:12:28.418Z,39.49
2019-04-25T17:15:04.155Z,39.76
2019-04-25T17:17:34.103Z,40.27
2019-04-25T17:20:12.979Z,39.88
2019-04-25T17:22:41.546Z,39.71
2019-04-25T17:25:10.639Z,40.32
2019-04-25T17:27:39.169Z,40.71
2019-04-25T17:30:07.669Z,40.26
2019-04-25T17:32:50.393Z,41.13
2019-04-25T17:35:23.840Z,40.01
2019-04-25T17:37:53.717Z,40.24
2019-04-25T17:40:26.396Z,40.20
2019-04-25T17:42:54.627Z,40.10
2019-04-25T17:45:24.547Z,39.60
2019-04-25T17:47:54.945Z,40.04
2019-04-25T17:50:22.790Z,39.98
2019-04-25T17:52:51.025Z,40.60
2019-04-25T17:55:19.410Z,41.52
2019-04-25T17:57:47.650Z,40.88
2019-04-25T18:00:33.803Z,41.02
2019-04-25T18:03:02.084Z,41.46
2019-04-25T18:05:30.380Z,42.84
2019-04-25T18:07:58.606Z,43.49
2019-04-25T18:10:27.621Z,44.91
2019-04-25T18:12:55.970Z,43.88
2019-04-25T18:15:25.838Z,46.11
2019-04-25T18:17:54.175Z,44.51
2019-04-25T18:20:24.062Z,44.39
2019-04-25T18:22:53.974Z,44.36
2019-04-25T18:25:29.825Z,44.67
2019-04-25T18:27:59.767Z,44.63
2019-04-25T18:30:28.076Z,44.74
2019-04-25T18:33:14.316Z,45.63
2019-04-25T18:35:44.205Z,45.53
2019-04-25T18:38:14.080Z,45.24
2019-04-25T18:41:00.379Z,45.36
2019-04-25T18:43:33.457Z,43.74
2019-04-25T18:46:06.033Z,43.85
2019-04-25T18:48:34.261Z,43.76
2019-04-25T18:51:02.599Z,45.38
2019-04-25T18:53:39.195Z,46.59
2019-04-25T18:56:17.771Z,46.83
2019-04-25T18:59:04.007Z,47.25
2019-04-25T19:01:43.667Z,46.53
2019-04-25T19:04:30.365Z,47.15
2019-04-25T19:06:58.719Z,48.04
2019-04-25T19:09:27.054Z,47.02
2019-04-25T19:11:55.547Z,47.32
2019-04-25T19:14:23.774Z,47.31
2019-04-25T19:16:52.088Z,48.17
2019-04-25T19:19:20.323Z,48.76
2019-04-25T19:21:48.770Z,48.78
2019-04-25T19:24:17.002Z,48.96
2019-04-25T19:26:46.083Z,49.40
2019-04-25T19:29:14.496Z,50.31
2019-04-25T19:31:42.851Z,49.56
2019-04-25T19:34:11.138Z,47.05
2019-04-25T19:36:40.404Z,47.90
2019-04-25T19:39:09.532Z,48.44
2019-04-25T19:41:45.416Z,48.15
2019-04-25T19:44:21.517Z,48.33
2019-04-25T19:46:51.393Z,49.58
2019-04-25T19:49:19.682Z,49.28
2019-04-25T19:51:47.921Z,49.70
2019-04-25T19:54:16.234Z,47.53
2019-04-25T19:56:45.349Z,48.25
2019-04-25T19:59:13.994Z,47.76
2019-04-25T20:01:42.626Z,48.89
2019-04-25T20:04:25.086Z,48.63
2019-04-25T20:07:09.377Z,47.93
2019-04-25T20:09:48.997Z,48.36
2019-04-25T20:12:17.278Z,48.07
2019-04-25T20:14:45.575Z,48.33
2019-04-25T20:17:13.811Z,48.23
2019-04-25T20:19:42.064Z,47.84
2019-04-25T20:22:10.320Z,49.82
2019-04-25T20:24:38.557Z,49.08
2019-04-25T20:27:06.828Z,48.94
2019-04-25T20:29:35.054Z,48.49
2019-04-25T20:32:03.363Z,46.87
2019-04-25T20:34:31.584Z,48.21
2019-04-25T20:36:59.869Z,49.13
2019-04-25T20:39:28.090Z,47.98
2019-04-25T20:41:56.366Z,48.38
2019-04-25T20:44:24.607Z,47.26
2019-04-25T20:46:52.959Z,47.64
2019-04-25T20:49:21.187Z,46.43
2019-04-25T20:51:50.533Z,46.10
2019-04-25T20:54:18.973Z,46.16
2019-04-25T20:56:48.177Z,46.92
2019-04-25T20:59:17.543Z,46.94
2019-04-25T21:01:45.822Z,46.36
2019-04-25T21:04:32.063Z,45.51
2019-04-25T21:07:01.227Z,43.58
2019-04-25T21:09:29.843Z,44.15
2019-04-25T21:11:58.139Z,45.29
2019-04-25T21:14:30.957Z,45.82
2019-04-25T21:17:15.866Z,46.23
2019-04-25T21:19:52.806Z,44.85
2019-04-25T21:22:21.164Z,45.69
2019-04-25T21:24:49.486Z,45.33
2019-04-25T21:27:18.854Z,45.71
2019-04-25T21:29:47.075Z,45.05
2019-04-25T21:32:17.004Z,45.21
2019-04-25T21:34:45.520Z,45.98
2019-04-25T21:37:14.515Z,44.88
2019-04-25T21:39:52.257Z,45.48
2019-04-25T21:42:22.320Z,44.74
2019-04-25T21:44:51.796Z,45.09
2019-04-25T21:47:21.031Z,45.90
2019-04-25T21:49:49.686Z,45.41
2019-04-25T21:52:18.200Z,46.13
2019-04-25T21:54:48.603Z,45.55
2019-04-25T21:57:16.603Z,45.74
2019-04-25T21:59:45.064Z,46.51
2019-04-25T22:02:13.380Z,46.51
2019-04-25T22:04:42.754Z,46.08
2019-04-25T22:07:11.746Z,47.13
2019-04-25T22:09:40.298Z,47.50
2019-04-25T22:12:09.948Z,46.42
2019-04-25T22:14:38.230Z,45.21
2019-04-25T22:17:07.923Z,46.23
2019-04-25T22:19:36.582Z,44.71
2019-04-25T22:22:04.982Z,45.42
2019-04-25T22:24:33.270Z,45.08
2019-04-25T22:27:03.329Z,45.60
2019-04-25T22:29:33.192Z,45.32
2019-04-25T22:32:03.173Z,44.81
2019-04-25T22:34:33.475Z,44.60
2019-04-25T22:37:02.081Z,45.68
2019-04-25T22:39:30.696Z,44.48
2019-04-25T22:41:59.534Z,45.54
2019-04-25T22:44:29.063Z,46.37
2019-04-25T22:46:57.715Z,46.45
2019-04-25T22:49:26.109Z,46.93
2019-04-25T22:51:54.385Z,46.80
2019-04-25T22:54:23.760Z,45.62
2019-04-25T22:56:52.099Z,45.33
2019-04-25T22:59:20.405Z,46.67
2019-04-25T23:01:50.325Z,46.79
2019-04-25T23:04:20.200Z,47.37
2019-04-25T23:06:48.437Z,47.47
2019-04-25T23:09:16.717Z,47.60
2019-04-25T23:11:45.231Z,47.88
2019-04-25T23:14:13.886Z,46.51
2019-04-25T23:16:42.127Z,46.62
2019-04-25T23:19:11.244Z,47.71
2019-04-25T23:21:39.910Z,48.73
2019-04-25T23:24:08.186Z,49.83
2019-04-25T23:26:38.346Z,50.05
2019-04-25T23:29:08.448Z,51.09
2019-04-25T23:31:38.324Z,49.37
2019-04-25T23:34:07.042Z,48.66
2019-04-25T23:36:35.395Z,48.18
2019-04-25T23:39:06.374Z,48.34
2019-04-25T23:41:35.835Z,48.12
2019-04-25T23:44:05.395Z,47.44
2019-04-25T23:46:33.965Z,47.62
2019-04-25T23:49:02.867Z,47.48
2019-04-25T23:51:31.108Z,46.94
2019-04-25T23:54:00.196Z,47.08
2019-04-25T23:56:28.473Z,47.70
2019-04-25T23:58:56.882Z,47.70
